createdAt,value
2023-01-10T00:00:43.297Z,3.97
2023-01-10T00:03:12.354Z,4.60
2023-01-10T00:05:41.537Z,4.27
2023-01-10T00:08:09.835Z,4.00
2023-01-10T00:10:37.683Z,4.00
2023-01-10T00:13:23.924Z,4.47
2023-01-10T00:15:53.595Z,3.93
2023-01-10T00:18:21.791Z,4.37
2023-01-10T00:20:50.425Z,4.07
2023-01-10T00:23:23.375Z,3.97
2023-01-10T00:25:51.058Z,4.00
2023-01-10T00:28:20.656Z,4.13
2023-01-10T00:30:51.340Z,4.57
2023-01-10T00:33:20.767Z,4.27
2023-01-10T00:35:48.670Z,4.90
2023-01-10T00:38:16.867Z,4.10
2023-01-10T00:40:44.585Z,4.33
2023-01-10T00:43:35.295Z,4.83
2023-01-10T00:46:03.541Z,4.40
2023-01-10T00:48:32.623Z,4.60
2023-01-10T00:51:00.322Z,4.70
2023-01-10T00:53:28.278Z,4.60
2023-01-10T00:55:55.987Z,4.57
2023-01-10T00:58:24.480Z,4.23
2023-01-10T01:00:52.420Z,4.60
2023-01-10T01:03:23.145Z,5.03
2023-01-10T01:05:52.408Z,4.70
2023-01-10T01:08:20.716Z,4.73
2023-01-10T01:10:48.580Z,4.43
2023-01-10T01:13:17.908Z,4.90
2023-01-10T01:15:47.176Z,4.80
2023-01-10T01:18:16.687Z,4.67
2023-01-10T01:20:45.747Z,4.50
2023-01-10T01:23:14.991Z,4.77
2023-01-10T01:25:42.768Z,4.53
2023-01-10T01:28:10.815Z,4.30
2023-01-10T01:30:38.846Z,4.30
2023-01-10T01:33:06.555Z,5.00
2023-01-10T01:35:34.430Z,4.60
2023-01-10T01:38:02.079Z,4.33
2023-01-10T01:40:31.159Z,4.80
2023-01-10T01:42:58.845Z,4.57
2023-01-10T01:45:40.084Z,4.47
2023-01-10T01:48:13.859Z,4.13
2023-01-10T01:50:45.849Z,4.80
2023-01-10T01:53:17.492Z,4.87
2023-01-10T01:55:46.919Z,4.63
2023-01-10T01:58:16.751Z,4.97
2023-01-10T02:00:44.447Z,4.73
2023-01-10T02:03:12.731Z,4.53
2023-01-10T02:05:41.408Z,4.83
2023-01-10T02:08:09.151Z,5.00
2023-01-10T02:10:40.419Z,4.20
2023-01-10T02:13:10.887Z,5.00
2023-01-10T02:15:38.589Z,4.17
2023-01-10T02:18:06.777Z,4.37
2023-01-10T02:20:54.550Z,4.20
2023-01-10T02:23:49.235Z,4.40
2023-01-10T02:26:32.666Z,4.47
2023-01-10T02:29:16.430Z,4.20
2023-01-10T02:32:35.601Z,4.23
2023-01-10T02:35:18.628Z,3.93
2023-01-10T02:37:52.988Z,3.90
2023-01-10T02:40:24.063Z,3.97
2023-01-10T02:42:58.079Z,3.67
2023-01-10T02:45:29.553Z,4.27
2023-01-10T02:47:59.397Z,4.07
2023-01-10T02:50:32.459Z,3.77
2023-01-10T02:53:03.780Z,3.93
2023-01-10T02:55:42.078Z,3.77
2023-01-10T02:58:17.275Z,3.23
2023-01-10T03:00:48.992Z,4.00
2023-01-10T03:03:33.237Z,3.83
2023-01-10T03:06:12.867Z,4.23
2023-01-10T03:08:44.899Z,4.27
2023-01-10T03:11:12.981Z,4.30
2023-01-10T03:13:44.994Z,4.50
2023-01-10T03:16:15.451Z,5.03
2023-01-10T03:18:46.620Z,5.00
2023-01-10T03:21:14.388Z,4.97
2023-01-10T03:23:42.165Z,5.10
2023-01-10T03:26:11.125Z,5.10
2023-01-10T03:28:45.164Z,5.77
2023-01-10T03:31:16.196Z,5.47
2023-01-10T03:33:45.411Z,5.83
2023-01-10T03:36:21.045Z,6.40
2023-01-10T03:38:52.920Z,6.17
2023-01-10T03:41:29.705Z,6.40
2023-01-10T03:44:18.344Z,6.00
2023-01-10T03:46:50.429Z,6.03
2023-01-10T03:49:20.753Z,6.40
2023-01-10T03:51:48.870Z,6.37
2023-01-10T03:54:17.475Z,6.67
2023-01-10T03:56:46.723Z,6.43
2023-01-10T03:59:14.556Z,7.10
2023-01-10T04:01:42.430Z,6.83
2023-01-10T04:04:11.611Z,7.30
2023-01-10T04:06:41.062Z,7.30
2023-01-10T04:09:08.915Z,7.73
2023-01-10T04:11:36.658Z,7.67
2023-01-10T04:14:04.397Z,7.57
2023-01-10T04:16:32.236Z,7.90
2023-01-10T04:18:59.896Z,8.87
2023-01-10T04:21:27.593Z,8.93
2023-01-10T04:23:56.651Z,8.97
2023-01-10T04:26:25.565Z,8.93
2023-01-10T04:28:53.236Z,8.80
2023-01-10T04:31:22.433Z,9.60
2023-01-10T04:33:50.133Z,8.73
2023-01-10T04:36:17.860Z,9.67
2023-01-10T04:38:45.620Z,9.03
2023-01-10T04:41:14.679Z,10.17
2023-01-10T04:43:42.414Z,9.43
2023-01-10T04:46:10.267Z,9.60
2023-01-10T04:48:38.256Z,10.53
2023-01-10T04:51:06.212Z,9.87
2023-01-10T04:53:33.921Z,10.63
2023-01-10T04:56:05.450Z,10.10
2023-01-10T04:58:35.613Z,10.20
2023-01-10T05:01:09.074Z,10.57
2023-01-10T05:03:36.834Z,10.37
2023-01-10T05:06:04.853Z,10.10
2023-01-10T05:08:32.663Z,10.57
2023-01-10T05:11:00.506Z,9.03
2023-01-10T05:13:28.452Z,10.70
2023-01-10T05:15:58.242Z,10.70
2023-01-10T05:18:26.221Z,11.13
2023-01-10T05:20:54.136Z,11.60
2023-01-10T05:23:21.823Z,11.50
2023-01-10T05:25:49.560Z,10.77
2023-01-10T05:28:17.190Z,10.80
2023-01-10T05:30:44.888Z,10.63
2023-01-10T05:33:13.873Z,9.77
2023-01-10T05:35:41.547Z,9.70
2023-01-10T05:38:09.205Z,9.83
2023-01-10T05:40:36.960Z,9.73
2023-01-10T05:43:04.678Z,9.23
2023-01-10T05:45:32.447Z,9.00
2023-01-10T05:48:00.207Z,10.03
2023-01-10T05:50:29.275Z,10.37
2023-01-10T05:52:58.077Z,9.97
2023-01-10T05:55:25.746Z,11.27
2023-01-10T05:57:53.409Z,10.33
2023-01-10T06:00:24.846Z,10.47
2023-01-10T06:02:53.061Z,9.00
2023-01-10T06:05:20.878Z,10.13
2023-01-10T06:07:49.957Z,9.00
2023-01-10T06:10:18.020Z,9.07
2023-01-10T06:12:50.416Z,9.63
2023-01-10T06:15:20.463Z,10.43
2023-01-10T06:17:53.181Z,9.77
2023-01-10T06:20:21.044Z,9.73
2023-01-10T06:22:50.129Z,8.73
2023-01-10T06:25:18.088Z,9.63
2023-01-10T06:27:45.877Z,9.27
2023-01-10T06:30:14.783Z,9.00
2023-01-10T06:32:43.401Z,10.07
2023-01-10T06:35:11.538Z,8.77
2023-01-10T06:37:39.400Z,9.27
2023-01-10T06:40:10.106Z,9.23
2023-01-10T06:42:37.793Z,9.53
2023-01-10T06:45:06.350Z,9.13
2023-01-10T06:47:34.104Z,8.97
2023-01-10T06:50:01.847Z,9.57
2023-01-10T06:52:30.410Z,9.50
2023-01-10T06:54:58.153Z,9.50
2023-01-10T06:57:28.354Z,9.10
2023-01-10T06:59:56.201Z,8.63
2023-01-10T07:02:23.904Z,9.37
2023-01-10T07:04:51.639Z,10.57
2023-01-10T07:07:19.773Z,9.60
2023-01-10T07:09:47.495Z,10.27
2023-01-10T07:12:15.210Z,10.33
2023-01-10T07:14:44.261Z,9.43
2023-01-10T07:17:11.926Z,10.33
2023-01-10T07:19:39.570Z,9.97
2023-01-10T07:22:07.260Z,10.03
2023-01-10T07:24:35.279Z,10.87
2023-01-10T07:27:03.143Z,10.27
2023-01-10T07:29:32.405Z,11.33
2023-01-10T07:32:01.536Z,11.67
2023-01-10T07:34:29.232Z,11.33
2023-01-10T07:36:56.961Z,11.63
2023-01-10T07:39:24.677Z,11.83
2023-01-10T07:41:53.381Z,12.30
2023-01-10T07:44:21.392Z,11.27
2023-01-10T07:46:49.920Z,11.77
2023-01-10T07:49:18.989Z,11.87
2023-01-10T07:51:46.691Z,12.80
2023-01-10T07:54:14.988Z,12.20
2023-01-10T07:56:42.836Z,13.00
2023-01-10T07:59:10.598Z,12.37
2023-01-10T08:01:38.438Z,12.23
2023-01-10T08:04:06.481Z,13.13
2023-01-10T08:06:35.585Z,12.13
2023-01-10T08:09:05.207Z,12.27
2023-01-10T08:11:32.962Z,12.43
2023-01-10T08:14:00.718Z,11.80
2023-01-10T08:16:28.515Z,13.30
2023-01-10T08:18:56.259Z,12.53
2023-01-10T08:21:24.087Z,13.50
2023-01-10T08:23:53.133Z,14.23
2023-01-10T08:26:20.860Z,13.17
2023-01-10T08:28:48.575Z,14.17
2023-01-10T08:31:16.335Z,14.73
2023-01-10T08:33:44.141Z,16.90
2023-01-10T08:36:18.388Z,17.20
2023-01-10T08:38:46.263Z,17.87
2023-01-10T08:41:15.773Z,15.87
2023-01-10T08:43:43.613Z,14.60
2023-01-10T08:46:11.575Z,13.87
2023-01-10T08:48:39.428Z,13.63
2023-01-10T08:51:09.061Z,12.80
2023-01-10T08:53:36.964Z,12.80
2023-01-10T08:56:05.750Z,12.67
2023-01-10T08:58:34.865Z,12.97
2023-01-10T09:01:05.640Z,12.87
2023-01-10T09:03:33.385Z,13.67
2023-01-10T09:06:01.391Z,13.30
2023-01-10T09:08:29.537Z,12.70
2023-01-10T09:10:59.546Z,13.77
2023-01-10T09:13:27.333Z,14.13
2023-01-10T09:15:57.698Z,13.63
2023-01-10T09:18:26.942Z,13.57
2023-01-10T09:20:55.002Z,13.57
2023-01-10T09:23:23.672Z,12.83
2023-01-10T09:25:53.965Z,14.50
2023-01-10T09:28:22.047Z,13.87
2023-01-10T09:30:50.093Z,13.97
2023-01-10T09:33:19.323Z,13.67
2023-01-10T09:35:47.036Z,14.43
2023-01-10T09:38:17.110Z,14.17
2023-01-10T09:41:03.372Z,13.17
2023-01-10T09:43:39.559Z,14.23
2023-01-10T09:46:11.368Z,14.20
2023-01-10T09:48:49.656Z,13.73
2023-01-10T09:51:31.495Z,13.83
2023-01-10T09:54:11.075Z,14.47
2023-01-10T09:56:40.584Z,14.90
2023-01-10T09:59:14.859Z,14.80
2023-01-10T10:01:42.577Z,14.77
2023-01-10T10:04:17.828Z,14.87
2023-01-10T10:06:49.394Z,15.13
2023-01-10T10:09:18.572Z,15.00
2023-01-10T10:11:54.689Z,14.77
2023-01-10T10:14:33.120Z,14.67
2023-01-10T10:17:31.179Z,13.57
2023-01-10T10:20:14.122Z,13.87
2023-01-10T10:22:48.678Z,14.30
2023-01-10T10:25:27.166Z,14.23
2023-01-10T10:28:07.501Z,13.40
2023-01-10T10:30:44.187Z,13.47
2023-01-10T10:33:27.524Z,13.20
2023-01-10T10:36:00.134Z,12.97
2023-01-10T10:38:30.755Z,12.13
2023-01-10T10:40:59.811Z,11.23
2023-01-10T10:43:32.556Z,12.17
2023-01-10T10:46:04.541Z,11.97
2023-01-10T10:48:35.021Z,11.37
2023-01-10T10:51:07.265Z,11.13
2023-01-10T10:53:35.543Z,9.67
2023-01-10T10:56:04.850Z,9.67
2023-01-10T10:58:33.347Z,9.87
2023-01-10T11:01:01.618Z,10.10
2023-01-10T11:03:39.850Z,10.20
2023-01-10T11:06:10.231Z,9.57
2023-01-10T11:08:41.123Z,9.00
2023-01-10T11:11:17.851Z,8.90
2023-01-10T11:13:49.151Z,8.47
2023-01-10T11:16:31.880Z,9.03
2023-01-10T11:19:17.113Z,8.60
2023-01-10T11:21:50.816Z,9.27
2023-01-10T11:24:27.763Z,9.90
2023-01-10T11:26:56.588Z,9.67
2023-01-10T11:29:27.196Z,9.30
2023-01-10T11:31:56.253Z,9.50
2023-01-10T11:34:27.015Z,9.77
2023-01-10T11:37:01.199Z,9.70
2023-01-10T11:39:30.132Z,9.73
2023-01-10T11:41:59.480Z,9.03
2023-01-10T11:44:30.836Z,9.20
2023-01-10T11:47:00.401Z,8.90
2023-01-10T11:49:32.163Z,9.17
2023-01-10T11:52:05.315Z,9.67
2023-01-10T11:54:33.788Z,9.67
2023-01-10T11:57:03.780Z,10.03
2023-01-10T11:59:32.880Z,9.17
2023-01-10T12:02:02.264Z,9.70
2023-01-10T12:04:32.935Z,9.53
2023-01-10T12:07:04.765Z,9.97
2023-01-10T12:09:39.781Z,9.43
2023-01-10T12:12:18.035Z,9.83
2023-01-10T12:14:46.089Z,8.90
2023-01-10T12:17:22.877Z,8.97
2023-01-10T12:19:53.164Z,8.73
2023-01-10T12:22:24.250Z,9.17
2023-01-10T12:24:53.542Z,9.50
2023-01-10T12:27:21.772Z,9.13
2023-01-10T12:29:57.690Z,10.03
2023-01-10T12:32:31.740Z,9.60
2023-01-10T12:35:02.327Z,9.17
2023-01-10T12:37:37.876Z,8.30
2023-01-10T12:40:12.972Z,8.87
2023-01-10T12:43:05.877Z,8.30
2023-01-10T12:45:41.398Z,8.20
2023-01-10T12:48:15.657Z,8.17
2023-01-10T12:50:45.822Z,7.67
2023-01-10T12:53:28.512Z,7.63
2023-01-10T12:55:58.021Z,7.70
2023-01-10T12:58:35.800Z,7.27
2023-01-10T13:01:05.165Z,7.60
2023-01-10T13:03:34.905Z,7.47
2023-01-10T13:06:03.543Z,9.10
2023-01-10T13:08:34.806Z,9.00
2023-01-10T13:11:03.228Z,9.33
2023-01-10T13:13:35.012Z,9.37
2023-01-10T13:16:16.418Z,9.47
2023-01-10T13:18:59.738Z,8.53
2023-01-10T13:21:27.679Z,8.97
2023-01-10T13:24:00.093Z,9.23
2023-01-10T13:26:28.153Z,8.13
2023-01-10T13:28:57.429Z,8.93
2023-01-10T13:31:26.764Z,8.67
2023-01-10T13:33:56.598Z,8.97
2023-01-10T13:36:26.791Z,9.33
2023-01-10T13:38:57.721Z,8.73
2023-01-10T13:41:43.234Z,8.73
2023-01-10T13:44:13.021Z,8.73
2023-01-10T13:46:45.556Z,9.40
2023-01-10T13:49:45.896Z,9.20
2023-01-10T13:52:37.654Z,9.00
2023-01-10T13:55:34.456Z,8.63
2023-01-10T13:58:03.794Z,8.17
2023-01-10T14:01:12.209Z,8.17
2023-01-10T14:03:50.544Z,9.20
2023-01-10T14:06:43.063Z,8.37
2023-01-10T14:09:34.213Z,8.30
2023-01-10T14:12:04.326Z,9.20
2023-01-10T14:17:23.710Z,13.77
2023-01-10T14:20:01.474Z,12.47
2023-01-10T14:22:32.043Z,11.37
2023-01-10T14:25:00.538Z,11.37
2023-01-10T14:27:35.576Z,10.67
2023-01-10T14:30:03.660Z,10.00
2023-01-10T14:32:38.194Z,9.17
2023-01-10T14:35:08.211Z,9.13
2023-01-10T14:37:42.028Z,8.53
2023-01-10T14:40:19.064Z,9.37
2023-01-10T14:42:49.242Z,9.40
2023-01-10T14:45:23.690Z,9.10
2023-01-10T14:47:51.554Z,9.20
2023-01-10T14:50:28.767Z,9.50
2023-01-10T14:52:57.163Z,9.03
2023-01-10T14:55:25.991Z,9.63
2023-01-10T14:57:56.522Z,9.13
2023-01-10T15:00:29.722Z,8.87
2023-01-10T15:03:01.635Z,9.47
2023-01-10T15:05:31.837Z,8.80
2023-01-10T15:08:18.479Z,10.10
2023-01-10T15:10:47.275Z,10.27
2023-01-10T15:13:18.612Z,10.00
2023-01-10T15:15:47.820Z,10.73
2023-01-10T15:18:28.674Z,10.30
2023-01-10T15:20:56.593Z,10.20
2023-01-10T15:23:27.275Z,10.60
2023-01-10T15:25:59.329Z,11.03
2023-01-10T15:28:29.651Z,10.93
2023-01-10T15:30:58.397Z,10.30
2023-01-10T15:33:29.115Z,11.73
2023-01-10T15:35:57.170Z,12.63
2023-01-10T15:38:30.289Z,12.67
2023-01-10T15:41:01.915Z,12.90
2023-01-10T15:43:32.879Z,12.60
2023-01-10T15:46:02.067Z,12.40
2023-01-10T15:48:35.032Z,12.60
2023-01-10T15:51:06.230Z,12.00
2023-01-10T15:53:52.976Z,12.60
2023-01-10T15:56:22.091Z,14.30
2023-01-10T15:58:51.217Z,14.70
2023-01-10T16:01:19.120Z,16.70
2023-01-10T16:03:49.181Z,17.13
2023-01-10T16:06:23.333Z,18.90
2023-01-10T16:08:52.611Z,19.77
2023-01-10T16:11:42.816Z,20.30
2023-01-10T16:14:10.989Z,21.33
2023-01-10T16:16:38.887Z,20.63
2023-01-10T16:19:06.764Z,19.77
2023-01-10T16:21:37.500Z,19.97
2023-01-10T16:24:05.967Z,18.97
2023-01-10T16:26:34.109Z,18.63
2023-01-10T16:29:01.846Z,18.60
2023-01-10T16:31:30.969Z,17.90
2023-01-10T16:33:58.682Z,17.53
2023-01-10T16:36:26.392Z,17.23
2023-01-10T16:38:54.092Z,18.00
2023-01-10T16:41:39.217Z,18.90
2023-01-10T16:44:06.917Z,20.73
2023-01-10T16:46:36.119Z,21.47
2023-01-10T16:49:06.483Z,21.60
2023-01-10T16:51:34.382Z,21.10
2023-01-10T16:54:02.321Z,22.13
2023-01-10T16:56:30.269Z,23.07
2023-01-10T16:58:58.378Z,24.40
2023-01-10T17:01:30.066Z,25.77
2023-01-10T17:03:59.473Z,25.17
2023-01-10T17:06:27.255Z,25.93
2023-01-10T17:08:54.930Z,24.80
2023-01-10T17:11:26.293Z,24.60
2023-01-10T17:13:54.817Z,25.97
2023-01-10T17:16:22.753Z,26.17
2023-01-10T17:18:50.550Z,25.40
2023-01-10T17:21:22.462Z,25.23
2023-01-10T17:23:50.395Z,26.30
2023-01-10T17:26:19.242Z,27.07
2023-01-10T17:28:49.491Z,28.20
2023-01-10T17:31:17.535Z,29.13
2023-01-10T17:33:45.266Z,29.57
2023-01-10T17:36:12.931Z,28.40
2023-01-10T17:38:43.103Z,27.63
2023-01-10T17:41:11.040Z,27.10
2023-01-10T17:43:39.140Z,25.80
2023-01-10T17:46:07.334Z,25.17
2023-01-10T17:48:35.663Z,23.33
2023-01-10T17:51:03.975Z,26.50
2023-01-10T17:53:31.746Z,25.77
2023-01-10T17:56:01.779Z,25.27
2023-01-10T17:58:29.799Z,25.57
2023-01-10T18:00:57.594Z,26.17
2023-01-10T18:03:25.697Z,27.47
2023-01-10T18:05:54.712Z,26.00
2023-01-10T18:08:23.133Z,26.10
2023-01-10T18:10:50.932Z,25.23
2023-01-10T18:13:21.424Z,25.20
2023-01-10T18:15:50.399Z,24.57
2023-01-10T18:18:21.279Z,24.03
2023-01-10T18:20:49.736Z,22.70
2023-01-10T18:23:24.896Z,22.90
2023-01-10T18:25:54.521Z,23.17
2023-01-10T18:28:39.532Z,22.60
2023-01-10T18:31:09.629Z,20.60
2023-01-10T18:33:37.438Z,21.33
2023-01-10T18:36:06.088Z,21.23
2023-01-10T18:38:34.019Z,22.43
2023-01-10T18:41:01.962Z,23.70
2023-01-10T18:43:31.303Z,24.57
2023-01-10T18:46:03.238Z,24.10
2023-01-10T18:48:31.032Z,23.57
2023-01-10T18:51:00.320Z,23.67
2023-01-10T18:53:28.143Z,23.53
2023-01-10T18:55:56.411Z,23.30
2023-01-10T18:58:24.760Z,23.67
2023-01-10T19:00:54.218Z,23.27
2023-01-10T19:03:21.925Z,22.73
2023-01-10T19:05:50.172Z,24.00
2023-01-10T19:08:17.929Z,22.00
2023-01-10T19:11:07.557Z,21.63
2023-01-10T19:13:34.046Z,22.20
2023-01-10T19:16:13.940Z,22.80
2023-01-10T19:18:42.180Z,23.73
2023-01-10T19:21:15.089Z,24.30
2023-01-10T19:23:43.344Z,26.60
2023-01-10T19:26:11.037Z,26.53
2023-01-10T19:28:39.174Z,29.80
2023-01-10T19:31:07.471Z,27.83
2023-01-10T19:33:37.503Z,29.77
2023-01-10T19:36:06.689Z,31.30
2023-01-10T19:38:34.551Z,33.33
2023-01-10T19:41:02.880Z,33.10
2023-01-10T19:43:30.800Z,32.07
2023-01-10T19:45:58.600Z,29.07
2023-01-10T19:48:26.523Z,26.67
2023-01-10T19:50:55.566Z,25.40
2023-01-10T19:53:27.114Z,23.37
2023-01-10T19:56:01.988Z,22.40
2023-01-10T19:58:29.884Z,21.77
2023-01-10T20:00:57.581Z,21.10
2023-01-10T20:03:25.254Z,20.93
2023-01-10T20:05:52.977Z,20.27
2023-01-10T20:08:23.381Z,22.07
2023-01-10T20:10:51.066Z,22.17
2023-01-10T20:13:18.788Z,22.93
2023-01-10T20:15:46.503Z,20.97
2023-01-10T20:18:14.151Z,22.77
2023-01-10T20:20:42.071Z,20.73
2023-01-10T20:23:12.233Z,22.27
2023-01-10T20:25:41.300Z,22.23
2023-01-10T20:28:08.957Z,22.07
2023-01-10T20:30:37.582Z,23.03
2023-01-10T20:33:05.279Z,21.80
2023-01-10T20:35:33.008Z,22.70
2023-01-10T20:38:00.715Z,22.40
2023-01-10T20:40:29.320Z,22.23
2023-01-10T20:42:58.413Z,21.80
2023-01-10T20:45:26.034Z,23.03
2023-01-10T20:47:53.959Z,24.70
2023-01-10T20:50:21.678Z,25.73
2023-01-10T20:52:49.325Z,27.13
2023-01-10T20:55:19.870Z,28.40
2023-01-10T20:57:47.512Z,26.63
2023-01-10T21:00:18.043Z,26.23
2023-01-10T21:02:45.847Z,26.67
2023-01-10T21:05:13.505Z,27.00
2023-01-10T21:07:41.203Z,25.63
2023-01-10T21:10:10.328Z,25.07
2023-01-10T21:12:38.050Z,26.03
2023-01-10T21:18:02.815Z,23.27
2023-01-10T21:20:30.540Z,24.27
2023-01-10T21:22:59.931Z,23.83
2023-01-10T21:25:27.920Z,24.63
2023-01-10T21:27:55.572Z,24.27
2023-01-10T21:30:23.363Z,23.20
2023-01-10T21:32:51.057Z,24.23
2023-01-10T21:35:20.193Z,24.57
2023-01-10T21:37:47.876Z,24.80
2023-01-10T21:40:18.275Z,23.53
2023-01-10T21:42:47.398Z,23.53
2023-01-10T21:45:15.439Z,23.50
2023-01-10T21:47:43.304Z,23.03
2023-01-10T21:50:13.285Z,22.97
2023-01-10T21:52:42.585Z,24.77
2023-01-10T21:55:11.184Z,22.77
2023-01-10T21:57:39.612Z,23.77
2023-01-10T22:00:09.982Z,23.87
2023-01-10T22:02:37.641Z,24.10
2023-01-10T22:05:05.833Z,24.30
2023-01-10T22:07:33.563Z,23.87
2023-01-10T22:10:02.617Z,22.73
2023-01-10T22:12:31.099Z,21.40
2023-01-10T22:14:58.840Z,23.57
2023-01-10T22:17:26.638Z,23.17
2023-01-10T22:19:54.335Z,23.87
2023-01-10T22:22:22.016Z,23.23
2023-01-10T22:24:49.692Z,24.30
2023-01-10T22:27:19.845Z,23.10
2023-01-10T22:29:47.592Z,21.53
2023-01-10T22:32:15.270Z,23.97
2023-01-10T22:34:42.913Z,22.70
2023-01-10T22:37:10.570Z,23.70
2023-01-10T22:39:38.246Z,24.70
2023-01-10T22:42:06.030Z,24.30
2023-01-10T22:44:35.073Z,26.00
2023-01-10T22:47:02.746Z,26.23
2023-01-10T22:49:30.397Z,23.93
2023-01-10T22:51:58.073Z,21.37
2023-01-10T22:54:25.738Z,21.40
2023-01-10T22:56:53.482Z,20.60
2023-01-10T22:59:21.141Z,20.43
2023-01-10T23:01:50.194Z,18.53
2023-01-10T23:04:20.287Z,17.87
2023-01-10T23:06:48.484Z,18.30
2023-01-10T23:09:16.254Z,18.23
2023-01-10T23:11:43.929Z,17.87
2023-01-10T23:14:11.637Z,16.73
2023-01-10T23:16:39.357Z,17.23
2023-01-10T23:19:08.451Z,17.03
2023-01-10T23:21:36.114Z,17.00
2023-01-10T23:24:03.792Z,15.90
2023-01-10T23:26:31.460Z,17.60
2023-01-10T23:28:59.191Z,17.70
2023-01-10T23:31:29.620Z,15.97
2023-01-10T23:33:57.562Z,16.07
2023-01-10T23:36:26.630Z,15.50
2023-01-10T23:38:54.301Z,14.23
2023-01-10T23:41:22.036Z,14.70
2023-01-10T23:43:50.453Z,13.83
2023-01-10T23:46:19.011Z,13.30
2023-01-10T23:48:48.362Z,13.67
2023-01-10T23:51:16.273Z,13.00
2023-01-10T23:53:45.319Z,12.60
2023-01-10T23:56:15.007Z,13.53
2023-01-10T23:58:42.919Z,12.47
